createdAt,value
2018-09-26T00:01:45.715Z,14.33
2018-09-26T00:04:13.185Z,14.26
2018-09-26T00:06:40.582Z,14.22
2018-09-26T00:09:08.085Z,14.24
2018-09-26T00:11:35.486Z,14.22
2018-09-26T00:14:02.897Z,14.19
2018-09-26T00:16:30.322Z,14.22
2018-09-26T00:18:57.804Z,14.15
2018-09-26T00:21:25.223Z,14.18
2018-09-26T00:23:52.655Z,14.21
2018-09-26T00:26:20.133Z,14.20
2018-09-26T00:28:47.627Z,14.16
2018-09-26T00:31:15.085Z,14.14
2018-09-26T00:33:42.506Z,14.04
2018-09-26T00:36:10.595Z,13.98
2018-09-26T00:38:37.917Z,13.94
2018-09-26T00:41:05.387Z,13.84
2018-09-26T00:43:33.011Z,13.79
2018-09-26T00:46:00.475Z,13.83
2018-09-26T00:48:28.012Z,13.84
2018-09-26T00:50:55.464Z,13.87
2018-09-26T00:53:23.472Z,13.88
2018-09-26T00:55:50.908Z,13.86
2018-09-26T00:58:18.385Z,13.84
2018-09-26T01:00:45.805Z,13.77
2018-09-26T01:03:13.281Z,13.72
2018-09-26T01:05:40.737Z,13.65
2018-09-26T01:08:08.211Z,13.61
2018-09-26T01:10:35.680Z,13.63
2018-09-26T01:13:03.975Z,13.63
2018-09-26T01:15:31.663Z,13.60
2018-09-26T01:17:59.084Z,13.58
2018-09-26T01:20:26.502Z,13.53
2018-09-26T01:22:53.943Z,13.54
2018-09-26T01:25:21.340Z,13.53
2018-09-26T01:27:48.876Z,13.57
2018-09-26T01:30:16.321Z,13.52
2018-09-26T01:32:43.726Z,13.52
2018-09-26T01:35:11.228Z,13.47
2018-09-26T01:37:38.688Z,13.46
2018-09-26T01:40:12.729Z,13.43
2018-09-26T01:42:40.355Z,13.37
2018-09-26T01:45:07.782Z,13.31
2018-09-26T01:47:35.279Z,13.21
2018-09-26T01:50:02.718Z,13.16
2018-09-26T01:52:30.152Z,13.14
2018-09-26T01:54:57.649Z,13.15
2018-09-26T01:57:25.139Z,13.17
2018-09-26T01:59:52.650Z,13.22
2018-09-26T02:02:20.054Z,13.22
2018-09-26T02:04:47.526Z,13.23
2018-09-26T02:07:14.950Z,13.20
2018-09-26T02:09:42.501Z,13.22
2018-09-26T02:12:09.960Z,13.18
2018-09-26T02:14:38.221Z,13.19
2018-09-26T02:17:05.836Z,13.21
2018-09-26T02:19:33.278Z,13.20
2018-09-26T02:22:00.711Z,13.18
2018-09-26T02:24:28.178Z,13.17
2018-09-26T02:26:55.614Z,13.07
2018-09-26T02:29:23.063Z,13.09
2018-09-26T02:31:50.518Z,13.15
2018-09-26T02:34:18.085Z,13.09
2018-09-26T02:36:45.704Z,13.08
2018-09-26T02:39:13.150Z,13.07
2018-09-26T02:41:40.666Z,13.11
2018-09-26T02:44:08.232Z,13.17
2018-09-26T02:46:35.679Z,13.20
2018-09-26T02:49:03.092Z,13.24
2018-09-26T02:51:30.666Z,13.20
2018-09-26T02:53:58.145Z,13.13
2018-09-26T02:56:25.579Z,13.14
2018-09-26T02:58:52.993Z,13.13
2018-09-26T03:01:20.486Z,13.11
2018-09-26T03:03:48.026Z,13.12
2018-09-26T03:06:15.524Z,13.11
2018-09-26T03:08:42.968Z,13.09
2018-09-26T03:11:10.425Z,13.04
2018-09-26T03:13:37.873Z,12.97
2018-09-26T03:16:05.402Z,12.92
2018-09-26T03:18:33.047Z,12.93
2018-09-26T03:21:01.100Z,12.96
2018-09-26T03:23:28.531Z,12.95
2018-09-26T03:25:55.959Z,12.94
2018-09-26T03:28:23.430Z,12.99
2018-09-26T03:30:50.947Z,12.94
2018-09-26T03:33:18.379Z,12.89
2018-09-26T03:35:45.782Z,12.79
2018-09-26T03:38:13.297Z,12.72
2018-09-26T03:40:41.638Z,12.72
2018-09-26T03:43:09.102Z,12.72
2018-09-26T03:45:36.514Z,12.73
2018-09-26T03:48:04.459Z,12.73
2018-09-26T03:50:32.135Z,12.64
2018-09-26T03:52:59.605Z,12.60
2018-09-26T03:55:27.139Z,12.67
2018-09-26T03:57:54.617Z,12.70
2018-09-26T04:00:22.012Z,12.70
2018-09-26T04:02:49.566Z,12.71
2018-09-26T04:05:17.028Z,12.72
2018-09-26T04:07:44.441Z,12.56
2018-09-26T04:10:12.020Z,12.37
2018-09-26T04:12:39.598Z,12.28
2018-09-26T04:15:08.144Z,12.18
2018-09-26T04:17:35.577Z,12.19
2018-09-26T04:20:03.022Z,12.02
2018-09-26T04:22:30.695Z,12.03
2018-09-26T04:24:58.246Z,12.05
2018-09-26T04:27:25.790Z,12.07
2018-09-26T04:29:53.278Z,12.02
2018-09-26T04:32:20.782Z,12.00
2018-09-26T04:34:48.251Z,12.05
2018-09-26T04:37:15.660Z,12.06
2018-09-26T04:39:43.147Z,11.97
2018-09-26T04:42:10.636Z,11.85
2018-09-26T04:44:38.088Z,11.75
2018-09-26T04:47:05.490Z,11.49
2018-09-26T04:49:32.981Z,11.19
2018-09-26T04:52:00.446Z,11.04
2018-09-26T04:54:27.956Z,11.04
2018-09-26T04:56:55.356Z,11.11
2018-09-26T04:59:22.789Z,11.16
2018-09-26T05:01:50.279Z,11.16
2018-09-26T05:04:17.690Z,11.16
2018-09-26T05:06:45.154Z,11.21
2018-09-26T05:09:12.612Z,11.18
2018-09-26T05:11:40.087Z,11.05
2018-09-26T05:14:07.624Z,11.14
2018-09-26T05:16:35.060Z,11.23
2018-09-26T05:19:02.458Z,11.29
2018-09-26T05:21:30.562Z,11.33
2018-09-26T05:23:57.993Z,11.34
2018-09-26T05:26:25.438Z,11.34
2018-09-26T05:28:52.880Z,11.41
2018-09-26T05:31:20.542Z,11.41
2018-09-26T05:33:47.990Z,11.41
2018-09-26T05:36:15.466Z,11.45
2018-09-26T05:38:42.951Z,11.47
2018-09-26T05:41:10.395Z,11.54
2018-09-26T05:43:37.792Z,11.53
2018-09-26T05:46:05.307Z,11.50
2018-09-26T05:48:32.705Z,11.61
2018-09-26T05:51:00.450Z,12.01
2018-09-26T05:53:27.903Z,12.23
2018-09-26T05:55:55.406Z,12.43
2018-09-26T05:58:22.909Z,12.85
2018-09-26T06:00:50.479Z,13.43
2018-09-26T06:03:17.923Z,13.71
2018-09-26T06:05:45.486Z,13.87
2018-09-26T06:08:13.417Z,14.28
2018-09-26T06:10:41.082Z,15.01
2018-09-26T06:13:08.662Z,15.55
2018-09-26T06:15:36.199Z,16.04
2018-09-26T06:18:04.075Z,16.43
2018-09-26T06:20:31.535Z,16.42
2018-09-26T06:22:58.980Z,16.55
2018-09-26T06:25:26.387Z,16.86
2018-09-26T06:27:53.902Z,17.38
2018-09-26T06:30:21.338Z,17.81
2018-09-26T06:32:48.761Z,17.97
2018-09-26T06:35:16.364Z,18.04
2018-09-26T06:37:44.199Z,17.75
2018-09-26T06:40:11.652Z,17.49
2018-09-26T06:42:39.210Z,17.69
2018-09-26T06:45:06.700Z,18.05
2018-09-26T06:47:34.334Z,18.32
2018-09-26T06:50:01.847Z,18.41
2018-09-26T06:52:29.940Z,18.50
2018-09-26T06:54:57.721Z,18.61
2018-09-26T06:57:25.528Z,18.67
2018-09-26T06:59:52.970Z,18.80
2018-09-26T07:02:20.482Z,19.01
2018-09-26T07:04:48.114Z,18.99
2018-09-26T07:07:15.850Z,19.03
2018-09-26T07:09:43.469Z,19.01
2018-09-26T07:12:11.006Z,18.84
2018-09-26T07:14:39.296Z,18.72
2018-09-26T07:17:06.875Z,18.72
2018-09-26T07:19:34.367Z,18.95
2018-09-26T07:22:01.934Z,19.01
2018-09-26T07:24:29.489Z,19.11
2018-09-26T07:26:57.063Z,19.30
2018-09-26T07:29:25.122Z,19.69
2018-09-26T07:31:52.666Z,19.73
2018-09-26T07:34:20.875Z,20.41
2018-09-26T07:36:47.923Z,21.22
2018-09-26T07:39:14.921Z,21.69
2018-09-26T07:41:43.078Z,21.59
2018-09-26T07:44:10.033Z,21.52
2018-09-26T07:46:38.659Z,22.06
2018-09-26T07:49:05.726Z,22.55
2018-09-26T07:51:33.140Z,22.60
2018-09-26T07:54:00.254Z,22.14
2018-09-26T07:56:27.257Z,21.62
2018-09-26T07:58:54.346Z,20.98
2018-09-26T08:01:21.381Z,20.79
2018-09-26T08:03:48.753Z,20.96
2018-09-26T08:06:16.160Z,20.89
2018-09-26T08:08:43.191Z,21.08
2018-09-26T08:11:10.601Z,21.23
2018-09-26T08:13:37.783Z,21.49
2018-09-26T08:16:04.790Z,22.09
2018-09-26T08:18:31.838Z,22.74
2018-09-26T08:20:58.911Z,22.64
2018-09-26T08:23:25.928Z,22.79
2018-09-26T08:25:52.986Z,23.02
2018-09-26T08:28:19.978Z,23.48
2018-09-26T08:30:47.089Z,22.86
2018-09-26T08:33:14.563Z,22.80
2018-09-26T08:35:41.980Z,23.52
2018-09-26T08:38:09.554Z,23.56
2018-09-26T08:40:37.097Z,23.34
2018-09-26T08:43:05.267Z,23.15
2018-09-26T08:45:32.721Z,23.04
2018-09-26T08:48:00.299Z,23.08
2018-09-26T08:50:27.809Z,23.83
2018-09-26T08:52:55.208Z,23.91
2018-09-26T08:55:22.703Z,23.89
2018-09-26T08:57:50.980Z,24.13
2018-09-26T09:00:17.980Z,24.53
2018-09-26T09:02:45.423Z,25.09
2018-09-26T09:05:13.919Z,24.98
2018-09-26T09:07:41.429Z,24.68
2018-09-26T09:10:08.898Z,23.85
2018-09-26T09:12:35.917Z,23.57
2018-09-26T09:15:02.969Z,23.40
2018-09-26T09:17:30.038Z,22.92
2018-09-26T09:19:57.266Z,22.31
2018-09-26T09:22:24.440Z,21.80
2018-09-26T09:24:51.854Z,22.20
2018-09-26T09:27:19.300Z,22.16
2018-09-26T09:29:46.974Z,21.11
2018-09-26T09:32:14.419Z,21.26
2018-09-26T09:34:41.894Z,21.34
2018-09-26T09:37:09.489Z,21.41
2018-09-26T09:39:37.063Z,21.07
2018-09-26T09:42:04.558Z,21.32
2018-09-26T09:44:32.663Z,21.95
2018-09-26T09:47:00.182Z,22.19
2018-09-26T09:49:27.709Z,21.90
2018-09-26T09:51:55.370Z,21.76
2018-09-26T09:54:22.891Z,21.28
2018-09-26T09:56:50.356Z,21.41
2018-09-26T09:59:17.982Z,21.52
2018-09-26T10:01:45.436Z,21.64
2018-09-26T10:04:13.070Z,21.95
2018-09-26T10:06:43.142Z,21.74
2018-09-26T10:09:10.674Z,21.91
2018-09-26T10:11:38.160Z,22.11
2018-09-26T10:14:05.813Z,22.97
2018-09-26T10:16:33.215Z,22.85
2018-09-26T10:19:01.817Z,22.85
2018-09-26T10:21:29.357Z,23.31
2018-09-26T10:23:57.043Z,23.43
2018-09-26T10:26:24.614Z,23.30
2018-09-26T10:28:52.515Z,23.61
2018-09-26T10:31:20.212Z,23.03
2018-09-26T10:33:47.715Z,23.17
2018-09-26T10:36:15.325Z,22.69
2018-09-26T10:38:42.851Z,22.64
2018-09-26T10:41:10.093Z,22.48
2018-09-26T10:43:37.332Z,22.42
2018-09-26T10:46:04.844Z,22.79
2018-09-26T10:48:32.355Z,22.55
2018-09-26T10:50:59.920Z,22.74
2018-09-26T10:53:27.492Z,23.48
2018-09-26T10:55:54.459Z,24.13
2018-09-26T10:58:21.913Z,24.40
2018-09-26T11:00:49.047Z,24.52
2018-09-26T11:03:16.160Z,24.76
2018-09-26T11:05:43.566Z,24.89
2018-09-26T11:08:10.800Z,25.27
2018-09-26T11:10:37.828Z,25.03
2018-09-26T11:13:04.908Z,24.47
2018-09-26T11:15:31.986Z,24.26
2018-09-26T11:18:00.391Z,24.09
2018-09-26T11:20:27.580Z,24.28
2018-09-26T11:22:54.935Z,23.99
2018-09-26T11:25:22.551Z,24.00
2018-09-26T11:27:49.682Z,24.60
2018-09-26T11:30:16.737Z,25.37
2018-09-26T11:32:43.786Z,25.17
2018-09-26T11:35:11.036Z,25.32
2018-09-26T11:37:38.088Z,25.05
2018-09-26T11:40:05.244Z,24.76
2018-09-26T11:42:32.502Z,24.71
2018-09-26T11:44:59.513Z,24.74
2018-09-26T11:47:26.565Z,24.75
2018-09-26T11:49:53.649Z,25.29
2018-09-26T11:52:20.775Z,25.77
2018-09-26T11:54:48.792Z,26.28
2018-09-26T11:57:15.814Z,26.17
2018-09-26T11:59:43.031Z,26.27
2018-09-26T12:02:10.031Z,26.23
2018-09-26T12:04:37.024Z,26.43
2018-09-26T12:07:04.140Z,26.92
2018-09-26T12:09:31.234Z,26.78
2018-09-26T12:14:44.444Z,26.58
2018-09-26T12:17:12.533Z,26.57
2018-09-26T12:19:39.640Z,26.23
2018-09-26T12:22:06.901Z,26.36
2018-09-26T12:24:33.900Z,26.31
2018-09-26T12:29:42.396Z,26.68
2018-09-26T12:32:09.421Z,26.95
2018-09-26T12:34:37.912Z,27.37
2018-09-26T12:37:05.380Z,27.65
2018-09-26T12:39:32.871Z,27.46
2018-09-26T12:42:01.051Z,26.94
2018-09-26T12:44:28.746Z,26.50
2018-09-26T12:46:56.306Z,26.05
2018-09-26T12:49:24.016Z,26.08
2018-09-26T12:51:51.506Z,26.72
2018-09-26T12:54:19.044Z,26.61
2018-09-26T12:56:46.496Z,26.32
2018-09-26T12:59:14.076Z,26.14
2018-09-26T13:01:41.161Z,26.00
2018-09-26T13:04:09.032Z,25.84
2018-09-26T13:06:36.032Z,25.99
2018-09-26T13:09:03.633Z,26.06
2018-09-26T13:11:31.211Z,26.33
2018-09-26T13:13:58.739Z,26.96
2018-09-26T13:16:26.206Z,27.16
2018-09-26T13:18:53.604Z,26.54
2018-09-26T13:21:21.197Z,26.38
2018-09-26T13:23:48.651Z,26.42
2018-09-26T13:26:16.323Z,26.42
2018-09-26T13:28:43.787Z,26.48
2018-09-26T13:31:11.253Z,27.10
2018-09-26T13:33:39.104Z,27.56
2018-09-26T13:36:06.703Z,27.12
2018-09-26T13:38:34.174Z,26.76
2018-09-26T13:41:02.080Z,27.17
2018-09-26T13:43:29.489Z,27.18
2018-09-26T13:45:57.077Z,26.42
2018-09-26T13:48:24.061Z,25.92
2018-09-26T13:50:51.637Z,25.70
2018-09-26T13:53:19.153Z,25.54
2018-09-26T13:55:46.611Z,25.39
2018-09-26T13:58:13.636Z,25.53
2018-09-26T14:00:41.052Z,25.76
2018-09-26T14:03:08.658Z,25.91
2018-09-26T14:05:35.873Z,25.81
2018-09-26T14:08:03.490Z,25.87
2018-09-26T14:10:30.991Z,26.02
2018-09-26T14:12:58.446Z,25.86
2018-09-26T14:15:25.898Z,25.89
2018-09-26T14:17:53.559Z,26.04
2018-09-26T14:20:20.808Z,26.15
2018-09-26T14:22:47.986Z,26.17
2018-09-26T14:25:14.956Z,25.97
2018-09-26T14:27:42.157Z,25.88
2018-09-26T14:30:09.190Z,26.02
2018-09-26T14:32:37.498Z,26.28
2018-09-26T14:35:04.478Z,26.31
2018-09-26T14:37:31.478Z,26.01
2018-09-26T14:39:59.138Z,26.16
2018-09-26T14:42:26.701Z,26.47
2018-09-26T14:44:54.510Z,25.92
2018-09-26T14:47:21.655Z,25.65
2018-09-26T14:49:49.276Z,25.36
2018-09-26T14:52:16.851Z,25.25
2018-09-26T14:54:44.489Z,25.31
2018-09-26T14:57:11.987Z,25.48
2018-09-26T14:59:39.417Z,25.57
2018-09-26T15:02:07.006Z,25.70
2018-09-26T15:04:34.953Z,25.73
2018-09-26T15:07:02.442Z,25.54
2018-09-26T15:09:29.896Z,25.60
2018-09-26T15:11:57.589Z,25.19
2018-09-26T15:14:26.037Z,25.15
2018-09-26T15:16:53.562Z,25.27
2018-09-26T15:19:21.564Z,25.13
2018-09-26T15:21:49.357Z,25.20
2018-09-26T15:24:16.979Z,24.97
2018-09-26T15:26:44.903Z,24.55
2018-09-26T15:29:12.374Z,24.56
2018-09-26T15:31:39.875Z,24.51
2018-09-26T15:34:07.405Z,24.53
2018-09-26T15:36:34.857Z,24.51
2018-09-26T15:39:04.372Z,24.40
2018-09-26T15:41:31.874Z,24.33
2018-09-26T15:43:59.389Z,24.48
2018-09-26T15:46:26.915Z,24.45
2018-09-26T15:48:54.533Z,24.44
2018-09-26T15:51:21.983Z,24.18
2018-09-26T15:53:50.499Z,23.92
2018-09-26T15:56:18.075Z,24.03
2018-09-26T15:58:45.679Z,24.02
2018-09-26T16:01:13.393Z,23.66
2018-09-26T16:03:40.823Z,23.56
2018-09-26T16:06:08.436Z,23.78
2018-09-26T16:08:35.926Z,23.95
2018-09-26T16:11:03.341Z,23.81
2018-09-26T16:13:30.999Z,23.89
2018-09-26T16:15:58.552Z,23.72
2018-09-26T16:18:26.081Z,23.62
2018-09-26T16:20:53.563Z,23.38
2018-09-26T16:23:20.975Z,23.30
2018-09-26T16:25:48.800Z,23.29
2018-09-26T16:28:17.081Z,23.10
2018-09-26T16:30:44.562Z,22.84
2018-09-26T16:33:12.310Z,22.64
2018-09-26T16:35:40.455Z,22.50
2018-09-26T16:38:08.235Z,22.45
2018-09-26T16:40:35.948Z,22.33
2018-09-26T16:43:03.403Z,22.28
2018-09-26T16:45:30.884Z,22.19
2018-09-26T16:48:00.159Z,22.13
2018-09-26T16:50:27.781Z,22.16
2018-09-26T16:52:55.289Z,22.06
2018-09-26T16:55:22.852Z,22.01
2018-09-26T16:57:50.416Z,22.01
2018-09-26T17:00:18.132Z,21.90
2018-09-26T17:02:45.784Z,21.79
2018-09-26T17:05:14.205Z,21.61
2018-09-26T17:07:41.652Z,21.45
2018-09-26T17:10:09.992Z,21.21
2018-09-26T17:12:37.774Z,21.02
2018-09-26T17:15:05.439Z,20.92
2018-09-26T17:17:32.471Z,20.82
2018-09-26T17:19:59.829Z,20.67
2018-09-26T17:22:26.881Z,20.53
2018-09-26T17:24:54.388Z,20.43
2018-09-26T17:27:22.064Z,20.38
2018-09-26T17:29:49.609Z,20.28
2018-09-26T17:32:17.181Z,20.25
2018-09-26T17:34:44.903Z,20.24
2018-09-26T17:37:12.326Z,20.16
2018-09-26T17:42:13.608Z,20.05
2018-09-26T17:44:41.191Z,20.03
2018-09-26T17:47:08.951Z,20.01
2018-09-26T17:49:36.419Z,19.99
2018-09-26T17:52:03.891Z,19.94
2018-09-26T17:54:31.279Z,19.86
2018-09-26T17:56:58.766Z,19.80
2018-09-26T17:59:26.248Z,19.74
2018-09-26T18:01:53.705Z,19.72
2018-09-26T18:04:21.544Z,19.69
2018-09-26T18:06:49.230Z,19.62
2018-09-26T18:09:16.775Z,19.57
2018-09-26T18:11:44.327Z,19.51
2018-09-26T18:14:11.852Z,19.44
2018-09-26T18:16:39.542Z,19.48
2018-09-26T18:19:07.058Z,19.47
2018-09-26T18:21:34.061Z,19.44
2018-09-26T18:24:01.890Z,19.39
2018-09-26T18:26:29.384Z,19.41
2018-09-26T18:28:57.080Z,19.36
2018-09-26T18:31:24.896Z,19.36
2018-09-26T18:33:52.412Z,19.36
2018-09-26T18:36:19.925Z,19.35
2018-09-26T18:38:47.437Z,19.32
2018-09-26T18:41:14.838Z,19.37
2018-09-26T18:43:42.420Z,19.42
2018-09-26T18:46:10.000Z,19.41
2018-09-26T18:48:37.462Z,19.39
2018-09-26T18:51:04.994Z,19.39
2018-09-26T18:53:32.452Z,19.31
2018-09-26T18:56:00.103Z,19.25
2018-09-26T18:58:27.715Z,19.18
2018-09-26T19:00:55.466Z,19.14
2018-09-26T19:03:23.566Z,19.10
2018-09-26T19:05:51.118Z,19.06
2018-09-26T19:08:18.624Z,19.07
2018-09-26T19:10:46.131Z,19.13
2018-09-26T19:13:13.676Z,19.05
2018-09-26T19:15:41.541Z,18.99
2018-09-26T19:18:09.097Z,18.95
2018-09-26T19:20:36.550Z,18.93
2018-09-26T19:23:04.071Z,18.85
2018-09-26T19:25:31.571Z,18.80
2018-09-26T19:27:59.085Z,18.76
2018-09-26T19:30:26.718Z,18.66
2018-09-26T19:32:54.185Z,18.60
2018-09-26T19:35:21.644Z,18.61
2018-09-26T19:37:49.119Z,18.59
2018-09-26T19:40:16.755Z,18.52
2018-09-26T19:42:44.238Z,18.46
2018-09-26T19:45:12.127Z,18.44
2018-09-26T19:47:39.837Z,18.40
2018-09-26T19:50:07.489Z,18.39
2018-09-26T19:52:34.982Z,18.40
2018-09-26T19:55:02.525Z,18.35
2018-09-26T19:57:30.022Z,18.29
2018-09-26T19:59:57.567Z,18.24
2018-09-26T20:02:25.045Z,18.13
2018-09-26T20:04:52.623Z,17.95
2018-09-26T20:07:20.055Z,17.89
2018-09-26T20:09:47.631Z,17.88
2018-09-26T20:12:15.043Z,17.82
2018-09-26T20:14:42.909Z,17.82
2018-09-26T20:17:10.429Z,17.85
2018-09-26T20:19:38.684Z,17.85
2018-09-26T20:22:06.307Z,17.79
2018-09-26T20:24:33.722Z,17.74
2018-09-26T20:27:01.320Z,17.71
2018-09-26T20:29:28.787Z,17.68
2018-09-26T20:31:56.237Z,17.62
2018-09-26T20:34:23.921Z,17.59
2018-09-26T20:36:51.612Z,17.61
2018-09-26T20:39:19.188Z,17.60
2018-09-26T20:41:46.812Z,17.56
2018-09-26T20:44:14.257Z,17.53
2018-09-26T20:46:41.704Z,17.49
2018-09-26T20:49:09.145Z,17.46
2018-09-26T20:51:36.956Z,17.46
2018-09-26T20:54:04.374Z,17.42
2018-09-26T20:56:31.825Z,17.40
2018-09-26T20:58:59.388Z,17.36
2018-09-26T21:01:26.988Z,17.32
2018-09-26T21:03:54.449Z,17.27
2018-09-26T21:06:21.937Z,17.18
2018-09-26T21:08:50.748Z,17.11
2018-09-26T21:11:18.230Z,17.10
2018-09-26T21:13:45.675Z,17.08
2018-09-26T21:16:13.142Z,17.07
2018-09-26T21:18:40.769Z,17.02
2018-09-26T21:21:08.217Z,17.01
2018-09-26T21:23:35.744Z,16.97
2018-09-26T21:26:03.232Z,16.95
2018-09-26T21:28:30.752Z,16.88
2018-09-26T21:30:58.272Z,16.87
2018-09-26T21:33:25.826Z,16.80
2018-09-26T21:35:53.439Z,16.67
2018-09-26T21:38:20.917Z,16.65
2018-09-26T21:40:48.664Z,16.58
2018-09-26T21:43:16.219Z,16.45
2018-09-26T21:45:43.662Z,16.37
2018-09-26T21:48:11.125Z,16.29
2018-09-26T21:50:38.540Z,16.33
2018-09-26T21:53:05.979Z,16.39
2018-09-26T21:55:33.577Z,16.39
2018-09-26T21:58:01.030Z,16.42
2018-09-26T22:00:28.560Z,16.41
2018-09-26T22:02:56.046Z,16.39
2018-09-26T22:05:23.453Z,16.38
2018-09-26T22:07:51.027Z,16.37
2018-09-26T22:10:18.599Z,16.32
2018-09-26T22:12:46.042Z,16.30
2018-09-26T22:15:13.512Z,16.31
2018-09-26T22:17:40.989Z,16.31
2018-09-26T22:20:08.453Z,16.29
2018-09-26T22:22:35.986Z,16.25
2018-09-26T22:25:03.553Z,16.21
2018-09-26T22:27:31.002Z,16.17
2018-09-26T22:29:58.464Z,16.07
2018-09-26T22:32:25.942Z,16.08
2018-09-26T22:34:54.340Z,16.07
2018-09-26T22:37:22.002Z,16.08
2018-09-26T22:39:49.667Z,16.06
2018-09-26T22:42:17.136Z,16.07
2018-09-26T22:44:44.588Z,16.04
2018-09-26T22:47:12.060Z,16.03
2018-09-26T22:49:39.530Z,16.02
2018-09-26T22:52:07.081Z,16.00
2018-09-26T22:54:34.495Z,15.97
2018-09-26T22:57:02.719Z,15.91
2018-09-26T22:59:30.232Z,15.88
2018-09-26T23:01:57.685Z,15.85
2018-09-26T23:04:25.428Z,15.79
2018-09-26T23:06:52.863Z,15.78
2018-09-26T23:09:20.325Z,15.78
2018-09-26T23:11:47.788Z,15.75
2018-09-26T23:14:15.258Z,15.70
2018-09-26T23:16:42.745Z,15.59
2018-09-26T23:19:10.177Z,15.48
2018-09-26T23:21:37.664Z,15.40
2018-09-26T23:24:05.316Z,15.32
2018-09-26T23:26:32.766Z,15.20
2018-09-26T23:29:00.233Z,15.20
2018-09-26T23:31:27.721Z,15.21
2018-09-26T23:33:55.683Z,15.19
2018-09-26T23:36:23.115Z,15.15
2018-09-26T23:38:50.586Z,15.15
2018-09-26T23:41:18.045Z,15.17
2018-09-26T23:43:45.453Z,15.16
2018-09-26T23:46:12.898Z,15.15
2018-09-26T23:48:40.330Z,15.13
2018-09-26T23:51:07.750Z,15.10
2018-09-26T23:53:35.214Z,15.02
2018-09-26T23:56:02.704Z,15.03
2018-09-26T23:58:31.137Z,15.05
